sensor_id;sensor_type;location;lat;lon;timestamp;P1;durP1;ratioP1;P2;durP2;ratioP2
21827;SDS011;11076;47.942;11.804;2023-08-01T00:02:41;3.80;;;2.42;;
21827;SDS011;11076;47.942;11.804;2023-08-01T00:07:44;5.22;;;2.40;;
21827;SDS011;11076;47.942;11.804;2023-08-01T00:12:47;4.50;;;2.60;;
21827;SDS011;11076;47.942;11.804;2023-08-01T00:17:49;4.03;;;2.70;;
21827;SDS011;11076;47.942;11.804;2023-08-01T00:22:52;3.40;;;2.67;;
21827;SDS011;11076;47.942;11.804;2023-08-01T00:27:54;3.85;;;2.60;;
21827;SDS011;11076;47.942;11.804;2023-08-01T00:32:56;4.68;;;2.80;;
21827;SDS011;11076;47.942;11.804;2023-08-01T00:37:59;4.47;;;2.70;;
21827;SDS011;11076;47.942;11.804;2023-08-01T00:43:01;5.97;;;3.15;;
21827;SDS011;11076;47.942;11.804;2023-08-01T00:48:04;3.50;;;2.72;;
21827;SDS011;11076;47.942;11.804;2023-08-01T00:53:06;4.85;;;2.92;;
21827;SDS011;11076;47.942;11.804;2023-08-01T00:58:09;7.65;;;2.80;;
21827;SDS011;11076;47.942;11.804;2023-08-01T01:03:12;3.53;;;2.33;;
21827;SDS011;11076;47.942;11.804;2023-08-01T01:08:15;5.32;;;2.22;;
21827;SDS011;11076;47.942;11.804;2023-08-01T01:13:17;4.20;;;2.70;;
21827;SDS011;11076;47.942;11.804;2023-08-01T01:18:20;3.55;;;2.50;;
21827;SDS011;11076;47.942;11.804;2023-08-01T01:23:22;3.13;;;2.65;;
21827;SDS011;11076;47.942;11.804;2023-08-01T01:28:27;2.78;;;2.10;;
21827;SDS011;11076;47.942;11.804;2023-08-01T01:33:31;3.75;;;2.42;;
21827;SDS011;11076;47.942;11.804;2023-08-01T01:38:34;4.93;;;2.47;;
21827;SDS011;11076;47.942;11.804;2023-08-01T01:43:37;3.17;;;2.40;;
21827;SDS011;11076;47.942;11.804;2023-08-01T01:48:40;4.47;;;2.60;;
21827;SDS011;11076;47.942;11.804;2023-08-01T01:53:44;2.63;;;2.28;;
21827;SDS011;11076;47.942;11.804;2023-08-01T01:58:46;7.38;;;2.85;;
21827;SDS011;11076;47.942;11.804;2023-08-01T02:03:49;5.57;;;2.42;;
21827;SDS011;11076;47.942;11.804;2023-08-01T02:08:51;3.17;;;2.22;;
21827;SDS011;11076;47.942;11.804;2023-08-01T02:13:54;3.08;;;1.98;;
21827;SDS011;11076;47.942;11.804;2023-08-01T02:18:56;5.85;;;2.28;;
21827;SDS011;11076;47.942;11.804;2023-08-01T02:23:58;4.10;;;2.22;;
21827;SDS011;11076;47.942;11.804;2023-08-01T02:29:01;4.07;;;2.35;;
21827;SDS011;11076;47.942;11.804;2023-08-01T02:34:04;3.15;;;2.30;;
21827;SDS011;11076;47.942;11.804;2023-08-01T02:39:06;4.22;;;2.40;;
21827;SDS011;11076;47.942;11.804;2023-08-01T02:44:09;5.90;;;2.72;;
21827;SDS011;11076;47.942;11.804;2023-08-01T02:49:11;5.60;;;2.58;;
21827;SDS011;11076;47.942;11.804;2023-08-01T02:54:13;3.65;;;2.40;;
21827;SDS011;11076;47.942;11.804;2023-08-01T02:59:16;4.40;;;2.90;;
21827;SDS011;11076;47.942;11.804;2023-08-01T03:04:20;3.63;;;2.45;;
21827;SDS011;11076;47.942;11.804;2023-08-01T03:09:23;3.17;;;2.22;;
21827;SDS011;11076;47.942;11.804;2023-08-01T03:14:25;3.83;;;2.78;;
21827;SDS011;11076;47.942;11.804;2023-08-01T03:19:28;3.30;;;2.40;;
21827;SDS011;11076;47.942;11.804;2023-08-01T03:24:30;3.83;;;2.45;;
21827;SDS011;11076;47.942;11.804;2023-08-01T03:29:35;3.45;;;2.58;;
21827;SDS011;11076;47.942;11.804;2023-08-01T03:34:37;2.75;;;2.42;;
21827;SDS011;11076;47.942;11.804;2023-08-01T03:39:41;3.50;;;2.72;;
21827;SDS011;11076;47.942;11.804;2023-08-01T03:44:43;5.65;;;2.88;;
21827;SDS011;11076;47.942;11.804;2023-08-01T03:49:46;7.65;;;2.85;;
21827;SDS011;11076;47.942;11.804;2023-08-01T03:54:49;6.15;;;3.03;;
21827;SDS011;11076;47.942;11.804;2023-08-01T03:59:51;5.60;;;2.50;;
21827;SDS011;11076;47.942;11.804;2023-08-01T04:04:54;3.58;;;2.40;;
21827;SDS011;11076;47.942;11.804;2023-08-01T04:09:56;5.93;;;2.80;;
21827;SDS011;11076;47.942;11.804;2023-08-01T04:14:58;5.38;;;3.13;;
21827;SDS011;11076;47.942;11.804;2023-08-01T04:20:01;4.93;;;2.78;;
21827;SDS011;11076;47.942;11.804;2023-08-01T04:25:04;2.95;;;2.58;;
21827;SDS011;11076;47.942;11.804;2023-08-01T04:30:07;6.03;;;2.72;;
21827;SDS011;11076;47.942;11.804;2023-08-01T04:35:09;5.72;;;2.85;;
21827;SDS011;11076;47.942;11.804;2023-08-01T04:40:12;4.22;;;3.08;;
21827;SDS011;11076;47.942;11.804;2023-08-01T04:45:14;4.82;;;3.10;;
21827;SDS011;11076;47.942;11.804;2023-08-01T04:50:17;5.88;;;3.47;;
21827;SDS011;11076;47.942;11.804;2023-08-01T04:55:19;4.65;;;3.20;;
21827;SDS011;11076;47.942;11.804;2023-08-01T05:00:21;3.63;;;2.85;;
21827;SDS011;11076;47.942;11.804;2023-08-01T05:05:24;4.35;;;3.13;;
21827;SDS011;11076;47.942;11.804;2023-08-01T05:10:26;4.35;;;2.72;;
21827;SDS011;11076;47.942;11.804;2023-08-01T05:15:29;7.57;;;3.15;;
21827;SDS011;11076;47.942;11.804;2023-08-01T05:20:32;3.70;;;2.75;;
21827;SDS011;11076;47.942;11.804;2023-08-01T05:25:35;4.95;;;2.70;;
21827;SDS011;11076;47.942;11.804;2023-08-01T05:30:38;5.93;;;3.47;;
21827;SDS011;11076;47.942;11.804;2023-08-01T05:35:40;5.40;;;3.13;;
21827;SDS011;11076;47.942;11.804;2023-08-01T05:40:42;6.10;;;3.20;;
21827;SDS011;11076;47.942;11.804;2023-08-01T05:45:45;5.05;;;3.38;;
21827;SDS011;11076;47.942;11.804;2023-08-01T05:50:47;5.70;;;3.08;;
21827;SDS011;11076;47.942;11.804;2023-08-01T05:55:50;6.25;;;3.50;;
21827;SDS011;11076;47.942;11.804;2023-08-01T06:00:52;5.85;;;3.53;;
21827;SDS011;11076;47.942;11.804;2023-08-01T06:05:55;5.65;;;3.65;;
21827;SDS011;11076;47.942;11.804;2023-08-01T06:10:57;5.97;;;3.35;;
21827;SDS011;11076;47.942;11.804;2023-08-01T06:15:59;5.57;;;3.65;;
21827;SDS011;11076;47.942;11.804;2023-08-01T06:21:02;5.20;;;3.70;;
21827;SDS011;11076;47.942;11.804;2023-08-01T06:26:04;5.55;;;3.08;;
21827;SDS011;11076;47.942;11.804;2023-08-01T06:31:07;7.10;;;3.95;;
21827;SDS011;11076;47.942;11.804;2023-08-01T06:36:09;5.85;;;3.05;;
21827;SDS011;11076;47.942;11.804;2023-08-01T06:41:11;5.60;;;3.50;;
21827;SDS011;11076;47.942;11.804;2023-08-01T06:46:14;7.15;;;3.58;;
21827;SDS011;11076;47.942;11.804;2023-08-01T06:51:16;8.65;;;3.50;;
21827;SDS011;11076;47.942;11.804;2023-08-01T06:56:18;4.30;;;3.03;;
21827;SDS011;11076;47.942;11.804;2023-08-01T07:01:21;3.83;;;3.03;;
21827;SDS011;11076;47.942;11.804;2023-08-01T07:06:24;4.72;;;3.40;;
21827;SDS011;11076;47.942;11.804;2023-08-01T07:11:26;5.60;;;3.47;;
21827;SDS011;11076;47.942;11.804;2023-08-01T07:16:29;4.18;;;3.30;;
21827;SDS011;11076;47.942;11.804;2023-08-01T07:21:32;3.92;;;2.97;;
21827;SDS011;11076;47.942;11.804;2023-08-01T07:26:34;6.60;;;2.85;;
21827;SDS011;11076;47.942;11.804;2023-08-01T07:31:37;7.18;;;3.55;;
21827;SDS011;11076;47.942;11.804;2023-08-01T07:36:39;4.65;;;3.00;;
21827;SDS011;11076;47.942;11.804;2023-08-01T07:41:42;7.30;;;3.65;;
21827;SDS011;11076;47.942;11.804;2023-08-01T07:46:44;5.57;;;3.42;;
21827;SDS011;11076;47.942;11.804;2023-08-01T07:51:47;6.20;;;3.20;;
21827;SDS011;11076;47.942;11.804;2023-08-01T07:56:49;6.45;;;3.65;;
21827;SDS011;11076;47.942;11.804;2023-08-01T08:01:51;2.97;;;2.58;;
21827;SDS011;11076;47.942;11.804;2023-08-01T08:06:55;6.75;;;3.85;;
21827;SDS011;11076;47.942;11.804;2023-08-01T08:12:01;5.45;;;3.50;;
21827;SDS011;11076;47.942;11.804;2023-08-01T08:17:04;5.38;;;3.60;;
21827;SDS011;11076;47.942;11.804;2023-08-01T08:22:06;5.35;;;3.60;;
21827;SDS011;11076;47.942;11.804;2023-08-01T08:27:09;8.45;;;4.97;;
21827;SDS011;11076;47.942;11.804;2023-08-01T08:32:12;3.58;;;3.17;;
21827;SDS011;11076;47.942;11.804;2023-08-01T08:37:14;7.22;;;3.70;;
21827;SDS011;11076;47.942;11.804;2023-08-01T08:42:17;7.00;;;3.90;;
21827;SDS011;11076;47.942;11.804;2023-08-01T08:47:24;9.45;;;4.03;;
21827;SDS011;11076;47.942;11.804;2023-08-01T08:52:29;6.07;;;4.00;;
21827;SDS011;11076;47.942;11.804;2023-08-01T08:57:31;5.65;;;3.55;;
21827;SDS011;11076;47.942;11.804;2023-08-01T09:02:35;6.15;;;3.55;;
21827;SDS011;11076;47.942;11.804;2023-08-01T09:07:38;4.68;;;3.83;;
21827;SDS011;11076;47.942;11.804;2023-08-01T09:12:44;3.08;;;2.75;;
21827;SDS011;11076;47.942;11.804;2023-08-01T09:17:51;10.95;;;3.90;;
21827;SDS011;11076;47.942;11.804;2023-08-01T09:22:57;7.78;;;4.20;;
21827;SDS011;11076;47.942;11.804;2023-08-01T09:27:59;6.57;;;4.03;;
21827;SDS011;11076;47.942;11.804;2023-08-01T09:33:02;6.93;;;3.95;;
21827;SDS011;11076;47.942;11.804;2023-08-01T09:38:04;5.00;;;3.80;;
21827;SDS011;11076;47.942;11.804;2023-08-01T09:43:07;4.38;;;3.53;;
21827;SDS011;11076;47.942;11.804;2023-08-01T09:48:09;5.32;;;3.65;;
21827;SDS011;11076;47.942;11.804;2023-08-01T09:53:22;5.70;;;3.47;;
21827;SDS011;11076;47.942;11.804;2023-08-01T09:58:25;5.43;;;3.75;;
21827;SDS011;11076;47.942;11.804;2023-08-01T10:03:33;6.80;;;4.28;;
21827;SDS011;11076;47.942;11.804;2023-08-01T10:08:36;9.27;;;4.28;;
21827;SDS011;11076;47.942;11.804;2023-08-01T10:13:38;7.43;;;4.57;;
21827;SDS011;11076;47.942;11.804;2023-08-01T10:18:41;7.18;;;3.97;;
21827;SDS011;11076;47.942;11.804;2023-08-01T10:23:45;6.38;;;3.88;;
21827;SDS011;11076;47.942;11.804;2023-08-01T10:28:52;6.22;;;3.78;;
21827;SDS011;11076;47.942;11.804;2023-08-01T10:34:03;5.53;;;3.97;;
21827;SDS011;11076;47.942;11.804;2023-08-01T10:39:07;7.18;;;4.35;;
21827;SDS011;11076;47.942;11.804;2023-08-01T10:44:10;8.82;;;4.35;;
21827;SDS011;11076;47.942;11.804;2023-08-01T10:49:15;5.65;;;3.88;;
21827;SDS011;11076;47.942;11.804;2023-08-01T10:54:22;6.50;;;3.50;;
21827;SDS011;11076;47.942;11.804;2023-08-01T10:59:27;4.88;;;3.67;;
21827;SDS011;11076;47.942;11.804;2023-08-01T11:04:29;9.93;;;3.63;;
21827;SDS011;11076;47.942;11.804;2023-08-01T11:09:32;5.55;;;3.78;;
21827;SDS011;11076;47.942;11.804;2023-08-01T11:14:34;6.07;;;3.95;;
21827;SDS011;11076;47.942;11.804;2023-08-01T11:19:37;5.30;;;3.22;;
21827;SDS011;11076;47.942;11.804;2023-08-01T11:24:39;8.00;;;3.72;;
21827;SDS011;11076;47.942;11.804;2023-08-01T11:29:41;5.55;;;3.55;;
21827;SDS011;11076;47.942;11.804;2023-08-01T11:34:44;5.22;;;3.50;;
21827;SDS011;11076;47.942;11.804;2023-08-01T11:39:49;6.82;;;3.65;;
21827;SDS011;11076;47.942;11.804;2023-08-01T11:44:53;5.82;;;3.30;;
21827;SDS011;11076;47.942;11.804;2023-08-01T11:49:56;5.43;;;3.50;;
21827;SDS011;11076;47.942;11.804;2023-08-01T11:54:58;5.38;;;3.78;;
21827;SDS011;11076;47.942;11.804;2023-08-01T12:00:01;3.42;;;2.60;;
21827;SDS011;11076;47.942;11.804;2023-08-01T12:05:20;5.47;;;2.83;;
21827;SDS011;11076;47.942;11.804;2023-08-01T12:10:23;4.82;;;3.30;;
21827;SDS011;11076;47.942;11.804;2023-08-01T12:15:26;5.07;;;3.15;;
21827;SDS011;11076;47.942;11.804;2023-08-01T12:20:29;4.05;;;2.65;;
21827;SDS011;11076;47.942;11.804;2023-08-01T12:25:31;5.82;;;3.10;;
21827;SDS011;11076;47.942;11.804;2023-08-01T12:30:33;5.47;;;3.08;;
21827;SDS011;11076;47.942;11.804;2023-08-01T12:35:40;3.45;;;2.50;;
21827;SDS011;11076;47.942;11.804;2023-08-01T12:40:43;2.90;;;2.35;;
21827;SDS011;11076;47.942;11.804;2023-08-01T12:45:46;3.22;;;2.53;;
21827;SDS011;11076;47.942;11.804;2023-08-01T12:50:50;2.58;;;2.33;;
21827;SDS011;11076;47.942;11.804;2023-08-01T12:55:53;3.55;;;2.20;;
21827;SDS011;11076;47.942;11.804;2023-08-01T13:00:55;2.58;;;2.38;;
21827;SDS011;11076;47.942;11.804;2023-08-01T13:05:58;2.97;;;1.88;;
21827;SDS011;11076;47.942;11.804;2023-08-01T13:11:00;1.92;;;1.70;;
21827;SDS011;11076;47.942;11.804;2023-08-01T13:16:04;2.53;;;2.15;;
21827;SDS011;11076;47.942;11.804;2023-08-01T13:21:07;2.50;;;1.70;;
21827;SDS011;11076;47.942;11.804;2023-08-01T13:26:09;2.43;;;1.83;;
21827;SDS011;11076;47.942;11.804;2023-08-01T13:31:12;2.05;;;1.70;;
21827;SDS011;11076;47.942;11.804;2023-08-01T13:36:14;1.73;;;1.63;;
21827;SDS011;11076;47.942;11.804;2023-08-01T13:41:17;3.47;;;1.80;;
21827;SDS011;11076;47.942;11.804;2023-08-01T13:46:19;5.75;;;1.95;;
21827;SDS011;11076;47.942;11.804;2023-08-01T13:51:33;1.25;;;1.13;;
21827;SDS011;11076;47.942;11.804;2023-08-01T13:56:36;3.70;;;1.98;;
21827;SDS011;11076;47.942;11.804;2023-08-01T14:01:40;4.38;;;2.00;;
21827;SDS011;11076;47.942;11.804;2023-08-01T14:06:42;3.13;;;1.73;;
21827;SDS011;11076;47.942;11.804;2023-08-01T14:11:45;2.28;;;1.73;;
21827;SDS011;11076;47.942;11.804;2023-08-01T14:16:47;3.70;;;1.42;;
21827;SDS011;11076;47.942;11.804;2023-08-01T14:21:50;1.20;;;1.10;;
21827;SDS011;11076;47.942;11.804;2023-08-01T14:26:52;5.97;;;1.40;;
21827;SDS011;11076;47.942;11.804;2023-08-01T14:31:55;3.17;;;1.35;;
21827;SDS011;11076;47.942;11.804;2023-08-01T14:36:57;1.30;;;1.20;;
21827;SDS011;11076;47.942;11.804;2023-08-01T14:42:00;0.93;;;0.90;;
21827;SDS011;11076;47.942;11.804;2023-08-01T14:47:05;2.28;;;1.40;;
21827;SDS011;11076;47.942;11.804;2023-08-01T14:52:07;1.10;;;1.05;;
21827;SDS011;11076;47.942;11.804;2023-08-01T14:57:10;1.13;;;1.00;;
21827;SDS011;11076;47.942;11.804;2023-08-01T15:02:12;1.40;;;1.05;;
21827;SDS011;11076;47.942;11.804;2023-08-01T15:07:15;0.88;;;0.88;;
21827;SDS011;11076;47.942;11.804;2023-08-01T15:12:18;2.20;;;1.25;;
21827;SDS011;11076;47.942;11.804;2023-08-01T15:17:30;3.15;;;1.20;;
21827;SDS011;11076;47.942;11.804;2023-08-01T15:22:32;0.80;;;0.80;;
21827;SDS011;11076;47.942;11.804;2023-08-01T15:27:35;0.70;;;0.70;;
21827;SDS011;11076;47.942;11.804;2023-08-01T15:32:37;1.13;;;0.80;;
21827;SDS011;11076;47.942;11.804;2023-08-01T15:37:40;2.00;;;1.02;;
21827;SDS011;11076;47.942;11.804;2023-08-01T15:42:42;1.17;;;0.85;;
21827;SDS011;11076;47.942;11.804;2023-08-01T15:47:44;1.00;;;0.80;;
21827;SDS011;11076;47.942;11.804;2023-08-01T15:52:47;1.17;;;1.13;;
21827;SDS011;11076;47.942;11.804;2023-08-01T15:57:49;1.08;;;0.70;;
21827;SDS011;11076;47.942;11.804;2023-08-01T16:02:52;0.75;;;0.73;;
21827;SDS011;11076;47.942;11.804;2023-08-01T16:07:54;3.72;;;0.80;;
21827;SDS011;11076;47.942;11.804;2023-08-01T16:12:57;0.95;;;0.82;;
21827;SDS011;11076;47.942;11.804;2023-08-01T16:18:00;0.88;;;0.70;;
21827;SDS011;11076;47.942;11.804;2023-08-01T16:23:03;0.93;;;0.75;;
21827;SDS011;11076;47.942;11.804;2023-08-01T16:28:05;0.65;;;0.63;;
21827;SDS011;11076;47.942;11.804;2023-08-01T16:33:11;1.52;;;0.80;;
21827;SDS011;11076;47.942;11.804;2023-08-01T16:38:14;2.13;;;0.90;;
21827;SDS011;11076;47.942;11.804;2023-08-01T16:43:16;2.53;;;0.70;;
21827;SDS011;11076;47.942;11.804;2023-08-01T16:48:19;0.80;;;0.63;;
21827;SDS011;11076;47.942;11.804;2023-08-01T16:53:21;2.88;;;0.70;;
21827;SDS011;11076;47.942;11.804;2023-08-01T16:58:23;0.80;;;0.80;;
21827;SDS011;11076;47.942;11.804;2023-08-01T17:03:26;2.75;;;0.80;;
21827;SDS011;11076;47.942;11.804;2023-08-01T17:08:28;0.80;;;0.80;;
21827;SDS011;11076;47.942;11.804;2023-08-01T17:13:31;0.80;;;0.80;;
21827;SDS011;11076;47.942;11.804;2023-08-01T17:18:35;0.80;;;0.80;;
21827;SDS011;11076;47.942;11.804;2023-08-01T17:23:37;1.45;;;1.20;;
21827;SDS011;11076;47.942;11.804;2023-08-01T17:28:40;0.85;;;0.80;;
21827;SDS011;11076;47.942;11.804;2023-08-01T17:33:42;1.05;;;1.00;;
21827;SDS011;11076;47.942;11.804;2023-08-01T17:38:46;1.10;;;1.00;;
21827;SDS011;11076;47.942;11.804;2023-08-01T17:43:49;1.27;;;1.17;;
21827;SDS011;11076;47.942;11.804;2023-08-01T17:48:51;2.58;;;1.00;;
21827;SDS011;11076;47.942;11.804;2023-08-01T17:53:54;1.15;;;0.80;;
21827;SDS011;11076;47.942;11.804;2023-08-01T17:58:56;1.17;;;0.93;;
21827;SDS011;11076;47.942;11.804;2023-08-01T18:03:59;0.85;;;0.80;;
21827;SDS011;11076;47.942;11.804;2023-08-01T18:09:01;1.00;;;0.85;;
21827;SDS011;11076;47.942;11.804;2023-08-01T18:14:03;0.90;;;0.85;;
21827;SDS011;11076;47.942;11.804;2023-08-01T18:19:06;1.33;;;0.80;;
21827;SDS011;11076;47.942;11.804;2023-08-01T18:24:08;0.77;;;0.70;;
21827;SDS011;11076;47.942;11.804;2023-08-01T18:29:10;0.73;;;0.63;;
21827;SDS011;11076;47.942;11.804;2023-08-01T18:34:13;1.27;;;0.82;;
21827;SDS011;11076;47.942;11.804;2023-08-01T18:39:15;1.02;;;0.68;;
21827;SDS011;11076;47.942;11.804;2023-08-01T18:44:19;0.65;;;0.55;;
21827;SDS011;11076;47.942;11.804;2023-08-01T18:49:21;0.70;;;0.70;;
21827;SDS011;11076;47.942;11.804;2023-08-01T18:54:24;0.85;;;0.80;;
21827;SDS011;11076;47.942;11.804;2023-08-01T18:59:27;3.95;;;0.90;;
21827;SDS011;11076;47.942;11.804;2023-08-01T19:04:29;0.70;;;0.70;;
21827;SDS011;11076;47.942;11.804;2023-08-01T19:09:32;2.78;;;0.80;;
21827;SDS011;11076;47.942;11.804;2023-08-01T19:14:34;2.97;;;0.90;;
21827;SDS011;11076;47.942;11.804;2023-08-01T19:19:37;1.00;;;0.90;;
21827;SDS011;11076;47.942;11.804;2023-08-01T19:24:39;1.08;;;0.88;;
21827;SDS011;11076;47.942;11.804;2023-08-01T19:29:42;3.97;;;1.70;;
21827;SDS011;11076;47.942;11.804;2023-08-01T19:34:45;0.93;;;0.77;;
21827;SDS011;11076;47.942;11.804;2023-08-01T19:39:48;3.55;;;1.27;;
21827;SDS011;11076;47.942;11.804;2023-08-01T19:44:50;1.10;;;0.90;;
21827;SDS011;11076;47.942;11.804;2023-08-01T19:49:53;1.27;;;0.80;;
21827;SDS011;11076;47.942;11.804;2023-08-01T19:54:55;1.33;;;1.23;;
21827;SDS011;11076;47.942;11.804;2023-08-01T19:59:58;1.27;;;1.00;;
21827;SDS011;11076;47.942;11.804;2023-08-01T20:05:00;0.90;;;0.90;;
21827;SDS011;11076;47.942;11.804;2023-08-01T20:10:03;1.27;;;0.93;;
21827;SDS011;11076;47.942;11.804;2023-08-01T20:15:06;1.65;;;0.90;;
21827;SDS011;11076;47.942;11.804;2023-08-01T20:20:09;2.15;;;1.40;;
21827;SDS011;11076;47.942;11.804;2023-08-01T20:25:12;2.15;;;1.10;;
21827;SDS011;11076;47.942;11.804;2023-08-01T20:30:14;1.50;;;1.10;;
21827;SDS011;11076;47.942;11.804;2023-08-01T20:35:17;1.73;;;0.93;;
21827;SDS011;11076;47.942;11.804;2023-08-01T20:40:19;2.60;;;1.20;;
21827;SDS011;11076;47.942;11.804;2023-08-01T20:45:22;1.27;;;1.17;;
21827;SDS011;11076;47.942;11.804;2023-08-01T20:50:24;1.55;;;1.40;;
21827;SDS011;11076;47.942;11.804;2023-08-01T20:55:26;0.90;;;0.90;;
21827;SDS011;11076;47.942;11.804;2023-08-01T21:00:29;2.35;;;1.35;;
21827;SDS011;11076;47.942;11.804;2023-08-01T21:05:34;2.60;;;1.40;;
21827;SDS011;11076;47.942;11.804;2023-08-01T21:10:38;1.55;;;1.10;;
21827;SDS011;11076;47.942;11.804;2023-08-01T21:15:40;1.60;;;1.15;;
21827;SDS011;11076;47.942;11.804;2023-08-01T21:20:42;1.45;;;1.35;;
21827;SDS011;11076;47.942;11.804;2023-08-01T21:25:45;1.15;;;1.10;;
21827;SDS011;11076;47.942;11.804;2023-08-01T21:30:47;1.60;;;1.50;;
21827;SDS011;11076;47.942;11.804;2023-08-01T21:35:50;1.25;;;1.15;;
21827;SDS011;11076;47.942;11.804;2023-08-01T21:40:52;2.08;;;1.52;;
21827;SDS011;11076;47.942;11.804;2023-08-01T21:45:55;1.27;;;1.25;;
21827;SDS011;11076;47.942;11.804;2023-08-01T21:50:58;1.40;;;1.30;;
21827;SDS011;11076;47.942;11.804;2023-08-01T21:56:01;1.30;;;1.20;;
21827;SDS011;11076;47.942;11.804;2023-08-01T22:01:03;2.63;;;1.30;;
21827;SDS011;11076;47.942;11.804;2023-08-01T22:06:06;3.33;;;1.63;;
21827;SDS011;11076;47.942;11.804;2023-08-01T22:11:08;2.08;;;1.48;;
21827;SDS011;11076;47.942;11.804;2023-08-01T22:16:11;2.75;;;1.50;;
21827;SDS011;11076;47.942;11.804;2023-08-01T22:21:13;1.38;;;1.25;;
21827;SDS011;11076;47.942;11.804;2023-08-01T22:26:15;1.70;;;1.40;;
21827;SDS011;11076;47.942;11.804;2023-08-01T22:31:18;2.55;;;1.55;;
21827;SDS011;11076;47.942;11.804;2023-08-01T22:36:20;1.75;;;1.45;;
21827;SDS011;11076;47.942;11.804;2023-08-01T22:41:23;2.53;;;1.50;;
21827;SDS011;11076;47.942;11.804;2023-08-01T22:46:25;1.73;;;1.63;;
21827;SDS011;11076;47.942;11.804;2023-08-01T22:51:27;2.08;;;1.75;;
21827;SDS011;11076;47.942;11.804;2023-08-01T22:56:30;2.53;;;1.75;;
21827;SDS011;11076;47.942;11.804;2023-08-01T23:01:33;2.42;;;1.60;;
21827;SDS011;11076;47.942;11.804;2023-08-01T23:06:35;1.58;;;1.45;;
21827;SDS011;11076;47.942;11.804;2023-08-01T23:11:38;1.98;;;1.77;;
21827;SDS011;11076;47.942;11.804;2023-08-01T23:16:41;3.90;;;1.98;;
21827;SDS011;11076;47.942;11.804;2023-08-01T23:21:43;1.60;;;1.50;;
21827;SDS011;11076;47.942;11.804;2023-08-01T23:26:45;2.72;;;1.60;;
21827;SDS011;11076;47.942;11.804;2023-08-01T23:31:48;5.53;;;1.58;;
21827;SDS011;11076;47.942;11.804;2023-08-01T23:36:50;3.33;;;2.00;;
21827;SDS011;11076;47.942;11.804;2023-08-01T23:41:53;2.95;;;1.48;;
21827;SDS011;11076;47.942;11.804;2023-08-01T23:46:59;4.82;;;1.60;;
21827;SDS011;11076;47.942;11.804;2023-08-01T23:52:01;5.53;;;1.92;;
21827;SDS011;11076;47.942;11.804;2023-08-01T23:57:04;2.10;;;1.83;;
